Time;durP1;ratioP1;P1;durP2;ratioP2;P2;SDS_P1;SDS_P2;PMS_P1;PMS_P2;Temp;Humidity;BMP_temperature;BMP_pressure;BME280_temperature;BME280_humidity;BME280_pressure;Samples;Min_cycle;Max_cycle;Signal;HPM_P1;HPM_P2
2022/09/06 00:00:17;;;;;;;5.25;1.33;;;;;;;12.44;66.50;101661.44;4993679;28;20133;-83
2022/09/06 00:02:44;;;;;;;2.08;1.15;;;;;;;12.53;64.74;101664.88;4999333;28;20078;-83
2022/09/06 00:05:13;;;;;;;2.35;1.15;;;;;;;12.64;63.80;101667.41;4978998;28;20034;-84
2022/09/06 00:07:40;;;;;;;2.10;1.10;;;;;;;12.62;66.58;101671.84;4994807;28;20046;-83
2022/09/06 00:10:07;;;;;;;1.75;1.15;;;;;;;12.76;64.00;101669.88;4967990;28;20068;-82
2022/09/06 00:12:34;;;;;;;1.95;1.33;;;;;;;12.98;62.66;101659.84;5008932;28;20052;-81
2022/09/06 00:15:01;;;;;;;2.67;1.35;;;;;;;13.04;63.63;101659.78;4995331;28;20160;-83
2022/09/06 00:17:27;;;;;;;3.33;1.17;;;;;;;13.04;64.23;101654.47;5009276;28;20436;-81
2022/09/06 00:19:54;;;;;;;2.45;1.20;;;;;;;13.25;61.57;101647.97;4994572;28;20048;-80
2022/09/06 00:22:21;;;;;;;2.17;1.10;;;;;;;13.21;62.97;101654.25;5008259;28;20041;-81
2022/09/06 00:24:48;;;;;;;1.42;0.95;;;;;;;13.23;63.45;101655.97;5009819;28;20119;-82
2022/09/06 00:27:14;;;;;;;2.28;1.40;;;;;;;13.29;63.85;101648.81;5000155;28;20076;-81
2022/09/06 00:29:41;;;;;;;5.30;1.27;;;;;;;13.41;62.31;101652.13;4997002;28;20042;-82
2022/09/06 00:32:08;;;;;;;2.00;1.10;;;;;;;13.41;63.01;101644.19;5000192;28;20041;-81
2022/09/06 00:34:34;;;;;;;1.92;1.30;;;;;;;13.41;64.46;101630.91;5012655;28;20030;-82
2022/09/06 00:37:01;;;;;;;2.70;1.20;;;;;;;13.65;61.52;101629.59;5008095;28;20056;-81
2022/09/06 00:39:28;;;;;;;2.63;1.40;;;;;;;13.68;61.58;101629.53;5010542;28;20042;-81
2022/09/06 00:41:54;;;;;;;3.90;1.13;;;;;;;13.58;62.87;101625.31;4994282;28;20053;-81
2022/09/06 00:44:21;;;;;;;3.20;1.20;;;;;;;13.67;63.65;101626.91;4996594;28;20042;-82
2022/09/06 00:46:49;;;;;;;3.40;1.30;;;;;;;13.54;62.98;101628.94;4994836;28;20048;-82
2022/09/06 00:49:37;;;;;;;2.10;1.10;;;;;;;13.60;63.70;101622.63;4996625;28;20042;-84
2022/09/06 00:52:08;;;;;;;2.20;1.35;;;;;;;13.69;63.62;101630.41;4995440;28;20042;-82
2022/09/06 00:54:35;;;;;;;2.75;1.33;;;;;;;13.65;64.11;101626.09;4981371;28;20037;-81
2022/09/06 00:57:02;;;;;;;4.30;1.27;;;;;;;13.71;62.98;101639.25;5011751;28;20100;-82
2022/09/06 00:59:30;;;;;;;2.28;1.13;;;;;;;13.69;64.14;101631.28;4994754;28;20045;-82
2022/09/06 01:01:57;;;;;;;3.45;1.33;;;;;;;13.55;66.15;101632.47;4978266;28;20124;-82
2022/09/06 01:04:25;;;;;;;1.70;1.23;;;;;;;13.53;66.16;101640.44;4995919;28;20042;-82
2022/09/06 01:07:05;;;;;;;2.60;1.48;;;;;;;13.56;65.37;101631.56;5012166;28;20125;-82
2022/09/06 01:09:47;;;;;;;3.15;1.40;;;;;;;13.53;65.54;101627.16;4980505;28;20044;-82
2022/09/06 01:12:28;;;;;;;1.55;1.30;;;;;;;13.35;68.84;101622.16;4996274;28;20120;-82
2022/09/06 01:15:32;;;;;;;1.92;1.30;;;;;;;13.42;68.20;101616.72;5011794;28;20042;-81
2022/09/06 01:18:18;;;;;;;1.85;1.20;;;;;;;13.38;66.70;101623.00;5012008;28;20048;-83
2022/09/06 01:21:23;;;;;;;4.05;1.42;;;;;;;13.53;65.29;101628.03;4979105;28;20050;-82
2022/09/06 01:24:10;;;;;;;1.52;1.10;;;;;;;13.58;65.53;101622.66;4985219;28;20049;-82
2022/09/06 01:27:06;;;;;;;1.73;1.17;;;;;;;13.27;68.54;101630.25;4998581;28;20053;-83
2022/09/06 01:29:54;;;;;;;1.67;1.33;;;;;;;13.31;67.39;101625.78;5003775;28;20042;-83
2022/09/06 01:32:34;;;;;;;2.83;1.50;;;;;;;13.22;68.52;101629.47;4998977;28;20038;-83
2022/09/06 01:35:17;;;;;;;2.22;1.40;;;;;;;13.12;68.87;101628.69;4998421;28;20046;-82
2022/09/06 01:37:44;;;;;;;1.98;1.48;;;;;;;12.97;69.00;101626.28;5014337;28;20052;-82
2022/09/06 01:40:11;;;;;;;3.60;1.52;;;;;;;13.13;68.79;101621.63;4992612;28;20125;-83
2022/09/06 01:42:38;;;;;;;3.65;1.70;;;;;;;12.96;70.38;101614.78;5009258;28;20574;-83
2022/09/06 01:45:10;;;;;;;9.10;3.25;;;;;;;12.91;70.69;101611.31;5010399;28;20407;-82
2022/09/06 01:47:52;;;;;;;9.57;2.20;;;;;;;13.07;69.00;101600.47;5012586;28;20352;-82
2022/09/06 01:50:56;;;;;;;7.38;2.00;;;;;;;13.01;72.76;101603.22;5001267;28;20051;-83
2022/09/06 01:53:41;;;;;;;2.95;1.30;;;;;;;12.81;72.30;101607.06;4996640;28;20459;-82
2022/09/06 01:56:18;;;;;;;3.08;1.35;;;;;;;12.93;70.72;101609.50;4993409;28;20526;-82
2022/09/06 01:58:58;;;;;;;2.28;1.65;;;;;;;12.72;73.08;101623.09;4993720;28;20049;-83
2022/09/06 02:01:29;;;;;;;5.05;1.40;;;;;;;12.76;73.12;101619.50;5010805;28;20731;-81
2022/09/06 02:04:19;;;;;;;2.55;1.45;;;;;;;12.73;73.56;101622.19;4997916;28;20482;-82
2022/09/06 02:06:49;;;;;;;2.88;1.35;;;;;;;12.71;73.16;101617.81;5013195;28;20101;-83
2022/09/06 02:09:19;;;;;;;2.85;1.40;;;;;;;12.66;73.62;101617.88;5012606;28;20042;-82
2022/09/06 02:11:56;;;;;;;2.97;1.40;;;;;;;12.69;74.07;101620.47;4994538;28;20429;-82
2022/09/06 02:14:34;;;;;;;3.90;1.50;;;;;;;12.65;74.44;101614.34;4995646;28;20041;-82
2022/09/06 02:17:01;;;;;;;3.13;1.33;;;;;;;12.70;74.87;101619.59;4987347;28;20464;-81
2022/09/06 02:19:44;;;;;;;4.80;1.48;;;;;;;12.73;74.22;101619.53;4983651;28;20501;-82
2022/09/06 02:22:14;;;;;;;2.13;1.60;;;;;;;12.80;74.44;101625.66;4993445;28;20491;-82
2022/09/06 02:24:43;;;;;;;1.67;1.42;;;;;;;12.66;76.26;101617.88;4994159;28;20396;-82
2022/09/06 02:27:10;;;;;;;2.13;1.42;;;;;;;12.74;74.46;101625.72;4983610;28;20711;-81
2022/09/06 02:29:37;;;;;;;1.85;1.35;;;;;;;12.65;76.33;101632.03;4993404;28;20065;-82
2022/09/06 02:32:11;;;;;;;1.88;1.30;;;;;;;12.78;76.52;101622.13;5008420;28;20108;-81
2022/09/06 02:34:42;;;;;;;3.75;1.27;;;;;;;12.89;73.51;101620.22;4993417;28;20038;-82
2022/09/06 02:37:10;;;;;;;2.08;1.20;;;;;;;12.79;75.20;101627.41;4977550;28;20042;-82
2022/09/06 02:39:37;;;;;;;3.03;1.92;;;;;;;12.83;74.29;101623.81;4994274;28;20054;-81
2022/09/06 02:42:05;;;;;;;1.58;1.20;;;;;;;12.84;74.32;101611.44;4992062;28;20049;-82
2022/09/06 02:44:31;;;;;;;2.10;1.65;;;;;;;12.81;75.03;101616.78;5009901;28;20044;-82
2022/09/06 02:47:00;;;;;;;2.70;1.35;;;;;;;12.89;74.26;101615.78;5008978;28;20041;-81
2022/09/06 02:49:26;;;;;;;3.63;1.30;;;;;;;12.96;74.25;101613.91;4980603;28;20041;-81
2022/09/06 02:51:53;;;;;;;2.92;1.20;;;;;;;12.93;76.86;101614.81;4975430;28;20129;-82
2022/09/06 02:54:20;;;;;;;2.22;1.33;;;;;;;12.86;75.97;101618.47;4977228;28;20084;-82
2022/09/06 02:56:46;;;;;;;3.45;1.40;;;;;;;12.95;73.87;101612.16;4995394;28;20057;-82
2022/09/06 02:59:17;;;;;;;1.88;1.33;;;;;;;12.99;73.79;101611.19;4994035;28;20042;-82
2022/09/06 03:01:44;;;;;;;2.85;1.42;;;;;;;12.95;74.63;101615.69;4991402;28;20117;-82
2022/09/06 03:04:11;;;;;;;3.25;1.30;;;;;;;12.93;74.99;101611.28;5028147;28;20037;-82
2022/09/06 03:06:37;;;;;;;2.65;1.75;;;;;;;13.16;71.60;101605.63;5017279;28;20483;-81
2022/09/06 03:09:04;;;;;;;2.75;1.38;;;;;;;12.93;74.10;101603.31;4980661;28;20041;-81
2022/09/06 03:11:31;;;;;;;1.92;1.40;;;;;;;13.00;75.68;101606.78;4979274;28;20045;-81
2022/09/06 03:13:57;;;;;;;2.65;1.52;;;;;;;13.02;73.81;101602.31;4997835;28;20053;-82
2022/09/06 03:16:24;;;;;;;4.05;1.80;;;;;;;12.99;73.07;101592.63;4980031;28;20042;-81
2022/09/06 03:18:51;;;;;;;3.65;1.50;;;;;;;13.08;73.76;101600.44;5014847;28;20125;-82
2022/09/06 03:21:17;;;;;;;2.28;1.20;;;;;;;13.01;73.91;101589.94;4996016;28;20053;-81
2022/09/06 03:23:44;;;;;;;1.98;1.40;;;;;;;12.98;74.68;101600.63;5012782;28;20507;-82
2022/09/06 03:26:11;;;;;;;2.50;1.48;;;;;;;12.95;73.71;101590.94;4990476;28;20038;-82
2022/09/06 03:28:38;;;;;;;1.88;1.08;;;;;;;13.07;72.83;101597.81;4990260;28;20046;-82
2022/09/06 03:31:05;;;;;;;1.85;1.38;;;;;;;13.01;73.35;101592.59;5070850;22;20490;-81
2022/09/06 03:33:31;;;;;;;2.63;1.20;;;;;;;12.96;72.59;101593.56;4996330;28;20522;-81
2022/09/06 03:36:00;;;;;;;3.30;1.35;;;;;;;12.74;76.43;101594.78;5012035;28;20046;-82
2022/09/06 03:38:27;;;;;;;2.42;1.25;;;;;;;12.79;75.67;101585.00;5011998;28;20193;-82
2022/09/06 03:40:54;;;;;;;1.92;1.42;;;;;;;12.75;75.29;101587.69;5004741;28;20992;-81
2022/09/06 03:43:22;;;;;;;1.75;1.15;;;;;;;12.74;75.96;101585.94;5011563;28;20042;-81
2022/09/06 03:45:53;;;;;;;3.72;1.70;;;;;;;12.57;76.29;101587.06;5007685;28;20049;-82
2022/09/06 03:48:22;;;;;;;2.10;1.33;;;;;;;12.70;75.69;101586.91;5027166;28;20092;-82
2022/09/06 03:50:51;;;;;;;2.08;1.30;;;;;;;12.48;77.37;101586.31;4993709;28;20624;-81
2022/09/06 03:53:18;;;;;;;2.75;1.30;;;;;;;12.43;78.20;101575.75;5011297;28;20045;-81
2022/09/06 03:55:46;;;;;;;1.85;1.45;;;;;;;12.38;79.20;101586.44;4993250;28;20038;-80
2022/09/06 03:58:14;;;;;;;1.67;1.23;;;;;;;12.44;77.14;101587.25;5002136;28;20045;-81
2022/09/06 04:00:41;;;;;;;2.45;1.20;;;;;;;12.26;78.41;101583.94;5022326;28;20510;-81
2022/09/06 04:03:08;;;;;;;2.50;2.00;;;;;;;12.18;79.14;101585.81;5008705;28;20495;-81
2022/09/06 04:05:35;;;;;;;1.70;1.30;;;;;;;12.09;79.80;101584.13;4977324;28;20041;-81
2022/09/06 04:08:02;;;;;;;2.20;1.40;;;;;;;12.15;80.13;101580.56;4990233;28;20030;-81
2022/09/06 04:10:28;;;;;;;2.38;1.42;;;;;;;11.99;80.87;101578.97;4995489;28;20045;-82
2022/09/06 04:12:55;;;;;;;3.15;1.50;;;;;;;12.04;81.55;101580.69;5002014;28;20053;-83
2022/09/06 04:15:22;;;;;;;2.28;1.60;;;;;;;11.96;80.27;101586.97;4986206;28;20033;-82
2022/09/06 04:17:48;;;;;;;1.95;1.50;;;;;;;12.12;80.08;101585.91;5007570;28;20410;-81
2022/09/06 04:20:16;;;;;;;3.25;1.42;;;;;;;12.01;81.31;101579.84;5009667;28;20046;-80
2022/09/06 04:22:42;;;;;;;1.52;1.13;;;;;;;11.96;81.86;101585.19;5007239;28;20049;-81
2022/09/06 04:25:09;;;;;;;1.98;1.60;;;;;;;11.87;81.21;101584.44;4978225;28;20041;-80
2022/09/06 04:27:36;;;;;;;2.25;1.45;;;;;;;11.80;84.03;101586.25;4992616;28;20046;-80
2022/09/06 04:30:03;;;;;;;1.95;1.30;;;;;;;11.77;83.18;101586.25;4993763;28;20038;-80
2022/09/06 04:32:31;;;;;;;4.70;1.42;;;;;;;11.84;82.39;101572.94;5009290;28;20048;-82
2022/09/06 04:34:58;;;;;;;1.55;1.20;;;;;;;11.78;82.95;101580.94;5010501;28;20384;-81
2022/09/06 04:37:27;;;;;;;2.67;1.30;;;;;;;11.82;83.06;101582.69;5006154;28;20092;-80
2022/09/06 04:39:54;;;;;;;3.22;1.50;;;;;;;11.77;83.65;101578.28;4985031;28;20084;-81
2022/09/06 04:42:21;;;;;;;1.50;1.20;;;;;;;11.72;82.99;101581.00;5013040;28;20406;-81
2022/09/06 04:44:48;;;;;;;2.10;1.40;;;;;;;11.69;83.15;101581.06;4986873;28;20081;-81
2022/09/06 04:47:16;;;;;;;8.30;1.75;;;;;;;11.74;83.76;101575.69;5008109;28;20046;-82
2022/09/06 04:49:44;;;;;;;2.50;1.17;;;;;;;11.76;83.74;101576.53;5011189;28;20046;-80
2022/09/06 04:52:11;;;;;;;5.03;1.77;;;;;;;11.68;85.42;101573.97;5006834;28;20052;-81
2022/09/06 04:54:38;;;;;;;2.10;1.40;;;;;;;11.77;82.39;101579.19;5008436;28;20065;-81
2022/09/06 04:57:05;;;;;;;1.40;1.13;;;;;;;11.69;84.75;101575.75;4992857;28;20065;-82
2022/09/06 04:59:31;;;;;;;3.30;1.20;;;;;;;11.89;82.55;101580.84;4994749;28;20075;-80
2022/09/06 05:01:58;;;;;;;3.40;1.50;;;;;;;11.78;83.45;101575.66;4991935;28;20128;-80
2022/09/06 05:04:25;;;;;;;3.85;1.58;;;;;;;11.77;85.31;101584.50;5008807;28;20502;-81
2022/09/06 05:07:00;;;;;;;2.78;1.30;;;;;;;11.80;85.55;101581.84;4991672;28;20061;-81
2022/09/06 05:09:28;;;;;;;2.58;1.33;;;;;;;11.99;82.51;101585.16;5013714;28;20549;-81
2022/09/06 05:11:55;;;;;;;3.17;1.70;;;;;;;12.02;83.88;101577.19;4998474;28;20065;-81
2022/09/06 05:14:21;;;;;;;1.40;1.00;;;;;;;12.08;83.54;101587.69;5023059;28;20042;-81
2022/09/06 05:16:49;;;;;;;1.83;1.20;;;;;;;12.21;81.28;101584.91;5005242;28;20048;-81
2022/09/06 05:19:16;;;;;;;1.80;1.10;;;;;;;12.23;80.90;101578.69;5011182;28;20045;-80
2022/09/06 05:21:43;;;;;;;2.15;1.48;;;;;;;12.34;81.35;101576.75;4990639;28;20043;-81
2022/09/06 05:24:10;;;;;;;2.47;1.33;;;;;;;12.43;79.14;101572.25;4986989;28;20092;-81
2022/09/06 05:26:37;;;;;;;1.80;1.17;;;;;;;12.56;80.19;101580.00;5009615;28;20144;-83
2022/09/06 05:29:04;;;;;;;3.58;1.55;;;;;;;12.69;79.91;101570.09;4995163;28;20050;-82
2022/09/06 05:31:33;;;;;;;2.05;1.30;;;;;;;12.67;78.23;101567.47;5031982;28;20137;-80
2022/09/06 05:33:59;;;;;;;2.28;1.50;;;;;;;12.67;78.70;101561.28;4996522;28;20498;-83
2022/09/06 05:36:27;;;;;;;2.13;1.20;;;;;;;12.78;77.61;101555.81;5026175;28;20037;-81
2022/09/06 05:38:55;;;;;;;2.88;1.27;;;;;;;12.79;78.52;101550.53;4995371;28;20065;-81
2022/09/06 05:41:23;;;;;;;2.92;1.30;;;;;;;12.83;77.37;101552.22;4996833;28;20049;-81
2022/09/06 05:43:49;;;;;;;2.53;1.60;;;;;;;12.78;76.92;101539.91;5013870;28;20038;-81
2022/09/06 05:46:16;;;;;;;1.70;1.05;;;;;;;12.79;78.24;101547.88;5013372;28;20041;-82
2022/09/06 05:48:50;;;;;;;2.85;1.45;;;;;;;12.82;75.59;101550.47;4995800;28;20045;-81
2022/09/06 05:51:17;;;;;;;1.77;1.40;;;;;;;12.72;77.21;101545.34;4993850;28;20046;-81
2022/09/06 05:53:44;;;;;;;1.70;1.27;;;;;;;12.71;78.36;101549.75;5008012;28;20092;-83
2022/09/06 05:56:13;;;;;;;1.15;1.00;;;;;;;12.72;75.57;101542.69;5022809;28;20495;-82
2022/09/06 05:58:40;;;;;;;2.15;1.20;;;;;;;12.84;76.11;101545.13;5028438;28;20092;-80
2022/09/06 06:01:25;;;;;;;1.77;1.30;;;;;;;12.79;78.02;101537.25;5013354;28;20042;-82
2022/09/06 06:03:59;;;;;;;2.55;1.25;;;;;;;12.80;75.73;101533.72;4993112;28;20050;-82
2022/09/06 06:06:28;;;;;;;1.63;1.20;;;;;;;12.89;76.54;101538.88;5004775;28;20502;-80
2022/09/06 06:08:55;;;;;;;1.92;1.50;;;;;;;12.98;76.62;101532.53;4993599;28;20052;-81
2022/09/06 06:11:23;;;;;;;3.13;1.40;;;;;;;12.96;76.19;101543.16;5025634;28;20038;-80
2022/09/06 06:13:49;;;;;;;2.08;1.30;;;;;;;13.07;74.73;101528.84;5011367;28;20045;-81
2022/09/06 06:16:17;;;;;;;1.67;1.10;;;;;;;13.17;75.18;101533.09;5008803;28;20034;-80
2022/09/06 06:18:44;;;;;;;2.55;1.38;;;;;;;13.31;72.19;101531.13;5004355;28;20426;-82
2022/09/06 06:21:28;;;;;;;1.83;1.48;;;;;;;13.34;71.77;101539.00;4990156;28;20100;-83
2022/09/06 06:24:00;;;;;;;3.47;1.70;;;;;;;14.16;71.07;101538.31;5009997;28;20050;-82
2022/09/06 06:26:30;;;;;;;3.20;1.40;;;;;;;14.86;63.82;101537.59;4994467;28;20040;-82
2022/09/06 06:29:00;;;;;;;3.03;1.10;;;;;;;15.57;60.64;101528.69;4998010;28;20453;-82
2022/09/06 06:31:31;;;;;;;1.45;0.93;;;;;;;16.31;59.65;101525.69;4982090;28;20040;-82
2022/09/06 06:34:01;;;;;;;2.67;1.13;;;;;;;16.70;56.73;101532.50;5044780;28;20038;-81
2022/09/06 06:36:32;;;;;;;1.85;1.10;;;;;;;16.86;56.74;101526.63;4999836;28;20133;-82
2022/09/06 06:39:00;;;;;;;1.67;1.05;;;;;;;16.56;56.47;101527.56;4996057;28;20108;-83
2022/09/06 06:41:30;;;;;;;1.63;1.13;;;;;;;16.74;55.76;101535.06;5011100;28;20069;-81
2022/09/06 06:43:59;;;;;;;1.58;1.10;;;;;;;17.23;55.78;101520.03;5014942;28;20049;-83
2022/09/06 06:46:28;;;;;;;2.25;1.13;;;;;;;17.42;53.36;101517.63;5029247;28;20069;-81
2022/09/06 06:48:55;;;;;;;2.05;1.17;;;;;;;17.00;54.63;101512.84;5012395;28;20038;-82
2022/09/06 06:51:24;;;;;;;1.10;0.90;;;;;;;17.52;55.03;101512.84;4996408;28;20061;-82
2022/09/06 06:53:51;;;;;;;2.33;1.10;;;;;;;17.48;52.35;101514.72;5002135;28;20046;-81
2022/09/06 06:56:20;;;;;;;1.42;1.20;;;;;;;16.95;54.18;101525.47;5014387;28;20034;-81
2022/09/06 06:58:49;;;;;;;1.90;1.40;;;;;;;17.06;53.40;101527.75;4994477;28;20053;-81
2022/09/06 07:01:18;;;;;;;2.35;1.05;;;;;;;17.47;54.23;101521.00;5014513;28;20045;-81
2022/09/06 07:03:45;;;;;;;3.33;1.20;;;;;;;17.65;53.12;101520.34;4988524;28;20817;-82
2022/09/06 07:06:13;;;;;;;1.60;1.00;;;;;;;17.76;52.95;101513.78;5015513;28;20494;-82
2022/09/06 07:08:40;;;;;;;2.25;1.05;;;;;;;18.04;51.94;101514.50;5019324;28;20050;-81
2022/09/06 07:11:10;;;;;;;2.10;1.20;;;;;;;18.15;49.90;101516.75;5012094;28;20042;-82
2022/09/06 07:13:37;;;;;;;2.63;1.60;;;;;;;18.20;49.98;101512.97;4998166;28;20577;-81
2022/09/06 07:16:07;;;;;;;3.65;1.40;;;;;;;18.00;50.25;101510.19;5010166;28;20108;-81
2022/09/06 07:18:36;;;;;;;4.05;1.20;;;;;;;18.68;48.62;101511.13;4982089;28;20656;-80
2022/09/06 07:21:03;;;;;;;1.75;1.10;;;;;;;18.32;48.96;101508.94;5000472;28;20284;-81
2022/09/06 07:23:50;;;;;;;1.80;1.20;;;;;;;18.67;48.93;101509.41;5014581;28;20089;-82
2022/09/06 07:26:35;;;;;;;2.13;1.10;;;;;;;19.01;48.51;101509.75;5003796;28;20034;-82
2022/09/06 07:29:03;;;;;;;1.92;1.00;;;;;;;18.60;48.82;101515.91;4983249;28;20046;-83
2022/09/06 07:31:31;;;;;;;2.03;1.20;;;;;;;18.57;50.79;101514.19;4981330;28;20091;-82
2022/09/06 07:34:19;;;;;;;2.10;1.08;;;;;;;18.46;48.41;101522.66;5085018;22;20049;-81
2022/09/06 07:36:46;;;;;;;3.15;1.17;;;;;;;18.17;49.64;101518.44;5057651;22;20041;-79
2022/09/06 07:39:13;;;;;;;6.95;1.80;;;;;;;18.53;49.46;101524.16;5033657;28;20046;-79
2022/09/06 07:41:41;;;;;;;16.98;3.42;;;;;;;18.71;48.40;101516.34;5030882;28;20060;-80
2022/09/06 07:44:08;;;;;;;7.28;1.73;;;;;;;18.73;49.07;101517.16;5016322;28;20473;-80
2022/09/06 07:46:35;;;;;;;19.75;3.90;;;;;;;18.67;49.80;101512.94;5015083;28;20037;-79
2022/09/06 07:49:03;;;;;;;10.63;2.22;;;;;;;18.78;48.86;101509.81;5015819;28;20051;-79
2022/09/06 07:51:30;;;;;;;4.13;1.05;;;;;;;18.79;48.28;101507.06;5014146;28;20041;-79
2022/09/06 07:53:56;;;;;;;2.88;1.25;;;;;;;18.69;48.47;101515.56;5005825;28;20037;-82
2022/09/06 07:56:43;;;;;;;2.53;1.35;;;;;;;18.89;47.50;101502.22;5026799;28;20052;-78
2022/09/06 07:59:10;;;;;;;1.60;1.00;;;;;;;18.70;49.20;101509.25;5019042;28;20048;-80
2022/09/06 08:01:37;;;;;;;2.83;1.27;;;;;;;18.77;47.28;101500.94;5034415;28;20098;-79
2022/09/06 08:04:07;;;;;;;2.65;1.10;;;;;;;18.40;46.93;101519.34;5053231;28;20041;-80
2022/09/06 08:06:39;;;;;;;3.60;1.30;;;;;;;18.50;46.86;101518.94;5014324;28;20045;-79
2022/09/06 08:09:26;;;;;;;3.03;1.10;;;;;;;18.54;48.21;101515.19;5025935;28;20441;-81
2022/09/06 08:11:52;;;;;;;1.30;1.00;;;;;;;18.47;47.77;101507.47;5015246;28;20044;-80
2022/09/06 08:14:19;;;;;;;2.03;1.13;;;;;;;18.64;50.10;101506.78;5018372;28;20041;-79
2022/09/06 08:16:46;;;;;;;1.05;0.88;;;;;;;18.64;48.68;101501.44;5033573;28;20504;-78
2022/09/06 08:19:12;;;;;;;1.75;1.10;;;;;;;18.71;47.73;101508.31;5052780;28;20038;-79
2022/09/06 08:21:39;;;;;;;1.77;1.30;;;;;;;18.59;47.77;101506.13;5033012;28;20044;-79
2022/09/06 08:24:08;;;;;;;2.78;1.00;;;;;;;18.71;47.05;101503.84;5050785;28;20052;-78
2022/09/06 08:26:39;;;;;;;1.85;0.95;;;;;;;18.80;48.44;101498.09;5049611;28;20045;-82
2022/09/06 08:29:07;;;;;;;2.50;1.02;;;;;;;18.98;49.32;101498.28;5034926;28;20072;-79
2022/09/06 08:31:36;;;;;;;1.98;1.10;;;;;;;19.04;47.23;101493.53;5033458;28;20131;-79
2022/09/06 08:34:02;;;;;;;3.05;1.05;;;;;;;19.04;47.86;101490.84;5034494;28;20120;-78
2022/09/06 08:36:30;;;;;;;2.72;1.55;;;;;;;19.15;46.80;101489.53;5029609;28;20517;-79
2022/09/06 08:38:58;;;;;;;1.63;1.15;;;;;;;19.22;47.10;101501.72;5035886;28;20091;-80
2022/09/06 08:41:40;;;;;;;2.25;1.17;;;;;;;19.15;46.03;101494.88;5026346;28;20045;-79
2022/09/06 08:44:09;;;;;;;2.35;1.17;;;;;;;18.81;45.54;101493.63;5032051;28;20120;-80
2022/09/06 08:47:03;;;;;;;1.73;1.02;;;;;;;19.06;47.68;101483.63;5034811;28;20108;-78
2022/09/06 08:49:31;;;;;;;;;;;;;;;19.03;46.11;101480.22;5032690;28;20059;-79
2022/09/06 08:52:18;;;;;;;2.67;1.20;;;;;;;19.24;45.08;101473.06;5028295;28;19935;-82
2022/09/06 08:55:11;;;;;;;1.85;1.00;;;;;;;19.51;45.52;101479.91;5028711;28;20045;-81
2022/09/06 08:57:50;;;;;;;2.33;1.20;;;;;;;19.70;46.60;101473.75;5028844;28;20037;-81
2022/09/06 09:00:18;;;;;;;2.10;1.23;;;;;;;19.74;44.78;101469.97;5028975;28;20409;-82
2022/09/06 09:02:56;;;;;;;3.17;1.10;;;;;;;19.87;44.77;101474.69;5013663;28;20080;-82
2022/09/06 09:05:25;;;;;;;6.03;1.90;;;;;;;19.67;42.64;101472.03;5032567;28;20040;-80
2022/09/06 09:08:12;;;;;;;4.82;1.30;;;;;;;19.61;44.83;101462.50;5047257;28;20052;-81
2022/09/06 09:10:41;;;;;;;2.70;1.33;;;;;;;19.63;43.29;101462.41;5015178;28;20044;-81
2022/09/06 09:13:35;;;;;;;2.90;1.20;;;;;;;19.73;43.80;101457.50;5012550;28;20037;-81
2022/09/06 09:16:03;;;;;;;1.77;1.10;;;;;;;20.11;44.24;101464.63;5028450;28;20510;-81
2022/09/06 09:18:33;;;;;;;4.97;1.38;;;;;;;19.98;41.25;101460.78;5010225;28;20644;-80
2022/09/06 09:21:00;;;;;;;1.90;1.00;;;;;;;20.07;42.20;101451.44;5038710;28;20048;-82
2022/09/06 09:23:28;;;;;;;2.67;1.17;;;;;;;20.25;43.18;101445.19;5027103;28;20410;-80
2022/09/06 09:25:59;;;;;;;3.33;1.08;;;;;;;20.16;42.12;101443.81;5010174;28;20804;-80
2022/09/06 09:28:25;;;;;;;2.45;0.98;;;;;;;20.45;40.94;101442.44;5015638;28;20040;-80
2022/09/06 09:30:55;;;;;;;3.53;1.63;;;;;;;20.67;41.73;101441.38;5032067;28;20051;-80
2022/09/06 09:33:30;;;;;;;2.50;1.15;;;;;;;20.77;40.60;101438.16;5008330;28;20506;-81
2022/09/06 09:35:59;;;;;;;1.60;1.10;;;;;;;20.98;40.61;101428.13;5094314;22;20624;-82
2022/09/06 09:38:28;;;;;;;5.78;1.30;;;;;;;21.25;41.43;101439.25;5005943;28;20048;-82
2022/09/06 09:40:57;;;;;;;3.80;1.20;;;;;;;21.69;40.72;101427.09;5017156;28;20044;-81
2022/09/06 09:43:32;;;;;;;1.77;1.20;;;;;;;22.16;39.60;101421.78;4979988;28;20042;-81
2022/09/06 09:46:23;;;;;;;2.38;1.08;;;;;;;21.72;37.46;101417.03;4993770;28;20069;-82
2022/09/06 09:49:05;;;;;;;1.52;1.08;;;;;;;21.83;38.81;101413.75;4992842;28;20105;-82
2022/09/06 09:51:39;;;;;;;2.13;1.20;;;;;;;21.53;38.46;101405.56;5008661;28;20053;-79
2022/09/06 09:54:11;;;;;;;2.65;1.20;;;;;;;21.57;39.18;101412.50;5011031;28;20475;-80
2022/09/06 09:56:51;;;;;;;1.77;1.00;;;;;;;21.68;38.59;101401.16;4992544;28;20407;-81
2022/09/06 09:59:27;;;;;;;2.42;1.10;;;;;;;21.57;37.66;101391.00;4997751;28;20049;-79
2022/09/06 10:01:56;;;;;;;1.98;1.00;;;;;;;21.90;39.70;101389.13;5008682;28;20046;-82
2022/09/06 10:04:30;;;;;;;1.85;1.10;;;;;;;21.61;37.42;101392.56;4981963;28;20042;-82
2022/09/06 10:07:21;;;;;;;2.30;1.30;;;;;;;21.80;38.86;101387.91;5003561;28;20042;-80
2022/09/06 10:09:50;;;;;;;2.05;1.10;;;;;;;21.86;38.82;101392.06;4993100;28;20060;-79
2022/09/06 10:12:37;;;;;;;2.08;0.90;;;;;;;21.69;38.03;101394.81;5009583;28;20058;-80
2022/09/06 10:15:09;;;;;;;2.83;1.20;;;;;;;21.45;37.30;101394.34;5010040;28;20046;-79
2022/09/06 10:17:47;;;;;;;2.42;1.30;;;;;;;21.72;38.72;101395.53;4992547;28;20128;-81
2022/09/06 10:20:15;;;;;;;2.90;1.10;;;;;;;21.59;37.04;101391.75;5010756;28;20128;-81
2022/09/06 10:23:03;;;;;;;2.65;1.10;;;;;;;21.50;39.37;101390.44;4992979;28;20104;-81
2022/09/06 10:25:36;;;;;;;2.85;1.13;;;;;;;21.40;37.18;101389.22;4985658;28;20050;-81
2022/09/06 10:28:10;;;;;;;2.95;1.00;;;;;;;21.52;38.11;101398.44;4995011;28;20498;-80
2022/09/06 10:30:44;;;;;;;2.63;1.20;;;;;;;21.73;37.37;101386.50;5009588;28;20066;-81
2022/09/06 10:33:14;;;;;;;;;;;;;;;21.61;37.50;101388.06;4990304;28;20053;-79
2022/09/06 10:35:41;;;;;;;3.10;1.10;;;;;;;21.86;38.53;101397.44;5004460;28;19925;-80
2022/09/06 10:38:26;;;;;;;2.20;1.20;;;;;;;22.08;38.51;101383.69;4995482;28;20042;-79
2022/09/06 10:41:27;;;;;;;2.22;1.13;;;;;;;21.80;36.77;101382.53;4993051;28;20733;-81
2022/09/06 10:44:13;;;;;;;6.90;1.40;;;;;;;22.01;36.70;101384.94;4995155;28;20627;-80
2022/09/06 10:46:43;;;;;;;2.05;1.58;;;;;;;22.04;37.49;101372.22;4993267;28;20585;-80
2022/09/06 10:49:14;;;;;;;1.90;1.10;;;;;;;22.25;38.87;101388.09;5029226;28;20499;-80
2022/09/06 10:51:48;;;;;;;2.40;1.30;;;;;;;22.09;35.38;101383.59;5011702;28;20068;-81
2022/09/06 10:54:20;;;;;;;2.08;1.25;;;;;;;22.16;36.29;101381.41;4984334;28;20592;-80
2022/09/06 10:56:55;;;;;;;1.88;1.23;;;;;;;21.84;35.95;101376.00;4989067;28;20038;-83
2022/09/06 10:59:36;;;;;;;2.25;1.10;;;;;;;22.02;37.08;101373.22;4988761;28;20046;-83
2022/09/06 11:02:04;;;;;;;1.70;1.08;;;;;;;22.23;37.73;101368.50;4976953;28;20049;-82
2022/09/06 11:04:37;;;;;;;2.53;1.33;;;;;;;22.48;36.23;101363.41;4993593;28;20038;-82
2022/09/06 11:07:39;;;;;;;2.40;1.40;;;;;;;22.55;35.79;101364.78;5008100;28;20034;-83
2022/09/06 11:10:13;;;;;;;2.20;1.30;;;;;;;22.54;35.77;101357.66;4977521;28;20046;-82
2022/09/06 11:12:56;;;;;;;1.98;1.23;;;;;;;22.82;35.55;101354.16;4977073;28;20049;-83
2022/09/06 11:15:25;;;;;;;1.58;1.20;;;;;;;23.19;35.76;101350.09;5009848;28;20050;-84
2022/09/06 11:18:08;;;;;;;1.90;1.13;;;;;;;23.10;34.72;101355.19;4981533;28;20120;-83
2022/09/06 11:20:45;;;;;;;1.38;1.10;;;;;;;23.52;34.06;101349.81;4994332;28;20042;-83
2022/09/06 11:23:37;;;;;;;1.83;1.42;;;;;;;23.86;33.58;101347.66;4998616;28;20409;-84
2022/09/06 11:26:03;;;;;;;4.53;1.50;;;;;;;23.94;33.47;101339.06;4995609;28;20049;-81
2022/09/06 11:28:36;;;;;;;3.65;1.60;;;;;;;23.95;32.62;101335.41;4990117;28;20399;-82
2022/09/06 11:31:04;;;;;;;4.45;1.33;;;;;;;24.27;32.32;101342.25;4992121;28;20411;-85
2022/09/06 11:33:34;;;;;;;2.00;1.10;;;;;;;24.39;31.87;101335.19;4993851;28;20515;-84
2022/09/06 11:36:17;;;;;;;3.00;1.50;;;;;;;24.24;31.94;101320.00;4975435;28;20046;-82
2022/09/06 11:38:54;;;;;;;1.60;1.20;;;;;;;24.27;33.54;101328.72;5011997;28;20048;-83
2022/09/06 11:41:21;;;;;;;1.75;1.33;;;;;;;24.07;32.97;101326.50;4979073;28;20406;-83
2022/09/06 11:43:49;;;;;;;1.88;1.25;;;;;;;23.51;32.27;101323.81;4979826;28;20076;-82
2022/09/06 11:46:34;;;;;;;3.20;1.10;;;;;;;23.90;33.14;101324.06;4995136;28;20070;-83